sensor_id;sensor_type;location;lat;lon;timestamp;pressure;altitude;pressure_sealevel;temperature;humidity
71666;BME280;59503;53.486;10.196;2023-04-10T00:02:21;102598.47;;;5.69;100.00
71666;BME280;59503;53.486;10.196;2023-04-10T00:04:46;102604.69;;;5.69;100.00
71666;BME280;59503;53.486;10.196;2023-04-10T00:07:12;102595.00;;;5.63;100.00
71666;BME280;59503;53.486;10.196;2023-04-10T00:09:38;102596.41;;;5.61;100.00
71666;BME280;59503;53.486;10.196;2023-04-10T00:12:04;102598.84;;;5.57;100.00
71666;BME280;59503;53.486;10.196;2023-04-10T00:14:29;102593.47;;;5.57;100.00
71666;BME280;59503;53.486;10.196;2023-04-10T00:16:55;102585.38;;;5.57;100.00
71666;BME280;59503;53.486;10.196;2023-04-10T00:19:20;102580.50;;;5.59;100.00
71666;BME280;59503;53.486;10.196;2023-04-10T00:21:46;102568.66;;;5.55;100.00
71666;BME280;59503;53.486;10.196;2023-04-10T00:24:12;102563.78;;;5.57;100.00
71666;BME280;59503;53.486;10.196;2023-04-10T00:26:37;102572.66;;;5.63;100.00
71666;BME280;59503;53.486;10.196;2023-04-10T00:29:03;102560.75;;;5.64;100.00
71666;BME280;59503;53.486;10.196;2023-04-10T00:31:29;102565.63;;;5.62;100.00
71666;BME280;59503;53.486;10.196;2023-04-10T00:33:56;102561.34;;;5.61;100.00
71666;BME280;59503;53.486;10.196;2023-04-10T00:36:21;102557.53;;;5.62;100.00
71666;BME280;59503;53.486;10.196;2023-04-10T00:38:47;102570.69;;;5.68;100.00
71666;BME280;59503;53.486;10.196;2023-04-10T00:41:14;102567.47;;;5.66;100.00
71666;BME280;59503;53.486;10.196;2023-04-10T00:43:40;102552.66;;;5.64;100.00
71666;BME280;59503;53.486;10.196;2023-04-10T00:46:05;102559.69;;;5.60;100.00
71666;BME280;59503;53.486;10.196;2023-04-10T00:48:32;102560.81;;;5.59;100.00
71666;BME280;59503;53.486;10.196;2023-04-10T00:50:58;102554.59;;;5.58;100.00
71666;BME280;59503;53.486;10.196;2023-04-10T00:53:24;102553.00;;;5.57;100.00
71666;BME280;59503;53.486;10.196;2023-04-10T00:55:50;102561.91;;;5.58;100.00
71666;BME280;59503;53.486;10.196;2023-04-10T00:58:17;102557.34;;;5.53;100.00
71666;BME280;59503;53.486;10.196;2023-04-10T01:00:42;102559.47;;;5.56;100.00
71666;BME280;59503;53.486;10.196;2023-04-10T01:03:08;102555.97;;;5.56;100.00
71666;BME280;59503;53.486;10.196;2023-04-10T01:05:50;102554.69;;;5.48;100.00
71666;BME280;59503;53.486;10.196;2023-04-10T01:08:46;102559.50;;;5.51;100.00
71666;BME280;59503;53.486;10.196;2023-04-10T01:14:18;102559.06;;;5.44;100.00
71666;BME280;59503;53.486;10.196;2023-04-10T01:16:56;102553.69;;;5.39;100.00
71666;BME280;59503;53.486;10.196;2023-04-10T01:19:59;102560.16;;;5.38;100.00
71666;BME280;59503;53.486;10.196;2023-04-10T01:30:45;102563.19;;;5.32;100.00
71666;BME280;59503;53.486;10.196;2023-04-10T01:33:15;102552.13;;;5.33;100.00
71666;BME280;59503;53.486;10.196;2023-04-10T01:35:46;102549.13;;;5.35;100.00
71666;BME280;59503;53.486;10.196;2023-04-10T01:38:15;102546.19;;;5.31;100.00
71666;BME280;59503;53.486;10.196;2023-04-10T01:40:42;102548.66;;;5.28;100.00
71666;BME280;59503;53.486;10.196;2023-04-10T01:43:15;102546.25;;;5.26;100.00
71666;BME280;59503;53.486;10.196;2023-04-10T01:45:44;102539.81;;;5.22;100.00
71666;BME280;59503;53.486;10.196;2023-04-10T01:48:11;102545.47;;;5.26;100.00
71666;BME280;59503;53.486;10.196;2023-04-10T01:50:37;102543.88;;;5.20;100.00
71666;BME280;59503;53.486;10.196;2023-04-10T01:53:05;102550.34;;;5.19;100.00
71666;BME280;59503;53.486;10.196;2023-04-10T01:55:32;102537.72;;;5.14;100.00
71666;BME280;59503;53.486;10.196;2023-04-10T01:57:58;102540.94;;;5.16;100.00
71666;BME280;59503;53.486;10.196;2023-04-10T02:00:24;102531.53;;;5.14;100.00
71666;BME280;59503;53.486;10.196;2023-04-10T02:02:50;102525.28;;;5.18;100.00
71666;BME280;59503;53.486;10.196;2023-04-10T02:05:16;102522.59;;;5.18;100.00
71666;BME280;59503;53.486;10.196;2023-04-10T02:08:07;102512.63;;;5.19;100.00
71666;BME280;59503;53.486;10.196;2023-04-10T02:10:51;102522.34;;;5.15;100.00
71666;BME280;59503;53.486;10.196;2023-04-10T02:13:21;102517.25;;;5.13;100.00
71666;BME280;59503;53.486;10.196;2023-04-10T02:15:49;102512.38;;;5.15;100.00
71666;BME280;59503;53.486;10.196;2023-04-10T02:18:16;102514.22;;;5.20;100.00
71666;BME280;59503;53.486;10.196;2023-04-10T02:20:43;102509.63;;;5.20;100.00
71666;BME280;59503;53.486;10.196;2023-04-10T02:23:09;102491.06;;;5.19;100.00
71666;BME280;59503;53.486;10.196;2023-04-10T02:25:35;102501.84;;;5.19;100.00
71666;BME280;59503;53.486;10.196;2023-04-10T02:28:04;102497.47;;;5.23;100.00
71666;BME280;59503;53.486;10.196;2023-04-10T02:30:30;102502.06;;;5.22;100.00
71666;BME280;59503;53.486;10.196;2023-04-10T02:32:57;102496.72;;;5.17;100.00
71666;BME280;59503;53.486;10.196;2023-04-10T02:35:22;102483.59;;;5.11;100.00
71666;BME280;59503;53.486;10.196;2023-04-10T02:37:48;102487.31;;;5.15;100.00
71666;BME280;59503;53.486;10.196;2023-04-10T02:40:15;102494.06;;;5.12;100.00
71666;BME280;59503;53.486;10.196;2023-04-10T02:42:41;102487.00;;;5.16;100.00
71666;BME280;59503;53.486;10.196;2023-04-10T02:45:07;102493.03;;;5.08;100.00
71666;BME280;59503;53.486;10.196;2023-04-10T02:47:33;102489.75;;;5.11;100.00
71666;BME280;59503;53.486;10.196;2023-04-10T02:49:58;102485.41;;;5.15;100.00
71666;BME280;59503;53.486;10.196;2023-04-10T02:52:24;102484.91;;;5.13;100.00
71666;BME280;59503;53.486;10.196;2023-04-10T02:54:49;102482.78;;;5.10;100.00
71666;BME280;59503;53.486;10.196;2023-04-10T02:57:16;102491.44;;;5.07;100.00
71666;BME280;59503;53.486;10.196;2023-04-10T02:59:41;102483.88;;;5.04;100.00
71666;BME280;59503;53.486;10.196;2023-04-10T03:02:07;102488.72;;;5.07;100.00
71666;BME280;59503;53.486;10.196;2023-04-10T03:04:33;102475.28;;;5.02;100.00
71666;BME280;59503;53.486;10.196;2023-04-10T03:06:58;102471.50;;;5.03;100.00
71666;BME280;59503;53.486;10.196;2023-04-10T03:09:24;102466.13;;;5.03;100.00
71666;BME280;59503;53.486;10.196;2023-04-10T03:11:50;102466.13;;;5.03;100.00
71666;BME280;59503;53.486;10.196;2023-04-10T03:14:16;102464.50;;;5.02;100.00
71666;BME280;59503;53.486;10.196;2023-04-10T03:16:42;102461.28;;;5.00;100.00
71666;BME280;59503;53.486;10.196;2023-04-10T03:19:07;102456.72;;;5.00;100.00
71666;BME280;59503;53.486;10.196;2023-04-10T03:21:33;102456.97;;;4.99;100.00
71666;BME280;59503;53.486;10.196;2023-04-10T03:23:58;102447.06;;;4.94;100.00
71666;BME280;59503;53.486;10.196;2023-04-10T03:26:24;102451.09;;;4.97;100.00
71666;BME280;59503;53.486;10.196;2023-04-10T03:28:49;102450.84;;;4.93;100.00
71666;BME280;59503;53.486;10.196;2023-04-10T03:31:15;102444.34;;;4.94;100.00
71666;BME280;59503;53.486;10.196;2023-04-10T03:33:40;102441.66;;;4.94;100.00
71666;BME280;59503;53.486;10.196;2023-04-10T03:36:06;102448.94;;;4.94;100.00
71666;BME280;59503;53.486;10.196;2023-04-10T03:38:32;102439.25;;;4.93;100.00
71666;BME280;59503;53.486;10.196;2023-04-10T03:40:57;102452.19;;;4.91;100.00
71666;BME280;59503;53.486;10.196;2023-04-10T03:43:24;102442.50;;;4.90;100.00
71666;BME280;59503;53.486;10.196;2023-04-10T03:45:49;102435.47;;;4.94;100.00
71666;BME280;59503;53.486;10.196;2023-04-10T03:48:15;102431.50;;;4.86;100.00
71666;BME280;59503;53.486;10.196;2023-04-10T03:50:42;102423.97;;;4.83;100.00
71666;BME280;59503;53.486;10.196;2023-04-10T03:53:08;102431.78;;;4.85;100.00
71666;BME280;59503;53.486;10.196;2023-04-10T03:55:33;102430.97;;;4.84;100.00
71666;BME280;59503;53.486;10.196;2023-04-10T03:57:59;102426.41;;;4.85;100.00
71666;BME280;59503;53.486;10.196;2023-04-10T04:00:25;102429.09;;;4.85;100.00
71666;BME280;59503;53.486;10.196;2023-04-10T04:02:51;102420.75;;;4.81;100.00
71666;BME280;59503;53.486;10.196;2023-04-10T04:05:18;102429.94;;;4.80;100.00
71666;BME280;59503;53.486;10.196;2023-04-10T04:07:43;102425.91;;;4.78;100.00
71666;BME280;59503;53.486;10.196;2023-04-10T04:10:09;102418.97;;;4.72;100.00
71666;BME280;59503;53.486;10.196;2023-04-10T04:12:34;102418.44;;;4.70;100.00
71666;BME280;59503;53.486;10.196;2023-04-10T04:15:00;102416.31;;;4.67;100.00
71666;BME280;59503;53.486;10.196;2023-04-10T04:17:25;102421.69;;;4.67;100.00
71666;BME280;59503;53.486;10.196;2023-04-10T04:19:51;102430.00;;;4.70;100.00
71666;BME280;59503;53.486;10.196;2023-04-10T04:22:17;102429.75;;;4.72;100.00
71666;BME280;59503;53.486;10.196;2023-04-10T04:24:42;102420.59;;;4.68;100.00
71666;BME280;59503;53.486;10.196;2023-04-10T04:27:08;102418.97;;;4.72;100.00
71666;BME280;59503;53.486;10.196;2023-04-10T04:29:33;102419.75;;;4.72;100.00
71666;BME280;59503;53.486;10.196;2023-04-10T04:31:58;102415.97;;;4.73;100.00
71666;BME280;59503;53.486;10.196;2023-04-10T04:34:24;102422.16;;;4.74;100.00
71666;BME280;59503;53.486;10.196;2023-04-10T04:36:49;102424.31;;;4.77;100.00
71666;BME280;59503;53.486;10.196;2023-04-10T04:39:15;102428.59;;;4.78;100.00
71666;BME280;59503;53.486;10.196;2023-04-10T04:41:41;102428.06;;;4.76;100.00
71666;BME280;59503;53.486;10.196;2023-04-10T04:44:06;102424.38;;;4.67;100.00
71666;BME280;59503;53.486;10.196;2023-04-10T04:46:32;102424.59;;;4.70;100.00
71666;BME280;59503;53.486;10.196;2023-04-10T04:48:57;102429.75;;;4.72;100.00
71666;BME280;59503;53.486;10.196;2023-04-10T04:51:23;102418.72;;;4.68;100.00
71666;BME280;59503;53.486;10.196;2023-04-10T04:53:48;102428.63;;;4.73;100.00
71666;BME280;59503;53.486;10.196;2023-04-10T04:56:14;102423.25;;;4.73;100.00
71666;BME280;59503;53.486;10.196;2023-04-10T04:58:39;102434.03;;;4.73;100.00
71666;BME280;59503;53.486;10.196;2023-04-10T05:01:06;102429.22;;;4.70;100.00
71666;BME280;59503;53.486;10.196;2023-04-10T05:03:32;102423.00;;;4.69;100.00
71666;BME280;59503;53.486;10.196;2023-04-10T05:05:57;102437.25;;;4.75;100.00
71666;BME280;59503;53.486;10.196;2023-04-10T05:08:23;102424.06;;;4.73;100.00
71666;BME280;59503;53.486;10.196;2023-04-10T05:10:48;102424.84;;;4.74;100.00
71666;BME280;59503;53.486;10.196;2023-04-10T05:13:14;102431.28;;;4.78;100.00
71666;BME280;59503;53.486;10.196;2023-04-10T05:15:42;102436.63;;;4.83;100.00
71666;BME280;59503;53.486;10.196;2023-04-10T05:18:07;102439.06;;;4.84;100.00
71666;BME280;59503;53.486;10.196;2023-04-10T05:20:34;102448.47;;;4.87;100.00
71666;BME280;59503;53.486;10.196;2023-04-10T05:23:00;102432.81;;;4.89;100.00
71666;BME280;59503;53.486;10.196;2023-04-10T05:25:26;102435.47;;;4.94;100.00
71666;BME280;59503;53.486;10.196;2023-04-10T05:27:51;102437.63;;;4.97;100.00
71666;BME280;59503;53.486;10.196;2023-04-10T05:30:17;102436.50;;;4.98;100.00
71666;BME280;59503;53.486;10.196;2023-04-10T05:32:42;102420.59;;;5.01;100.00
71666;BME280;59503;53.486;10.196;2023-04-10T05:35:08;102422.38;;;5.11;100.00
71666;BME280;59503;53.486;10.196;2023-04-10T05:37:33;102418.00;;;5.20;100.00
71666;BME280;59503;53.486;10.196;2023-04-10T05:39:59;102411.69;;;5.30;100.00
71666;BME280;59503;53.486;10.196;2023-04-10T05:42:24;102417.78;;;5.40;100.00
71666;BME280;59503;53.486;10.196;2023-04-10T05:44:51;102419.25;;;5.51;100.00
71666;BME280;59503;53.486;10.196;2023-04-10T05:47:16;102408.34;;;5.61;100.00
71666;BME280;59503;53.486;10.196;2023-04-10T05:49:42;102419.50;;;5.78;100.00
71666;BME280;59503;53.486;10.196;2023-04-10T05:52:07;102417.44;;;5.94;100.00
71666;BME280;59503;53.486;10.196;2023-04-10T05:54:33;102410.53;;;6.06;100.00
71666;BME280;59503;53.486;10.196;2023-04-10T05:56:58;102405.41;;;6.23;100.00
71666;BME280;59503;53.486;10.196;2023-04-10T05:59:24;102410.25;;;6.45;100.00
71666;BME280;59503;53.486;10.196;2023-04-10T06:01:49;102412.72;;;6.60;100.00
71666;BME280;59503;53.486;10.196;2023-04-10T06:04:15;102404.56;;;6.79;100.00
71666;BME280;59503;53.486;10.196;2023-04-10T06:06:40;102411.25;;;7.00;100.00
71666;BME280;59503;53.486;10.196;2023-04-10T06:09:06;102404.63;;;7.06;100.00
71666;BME280;59503;53.486;10.196;2023-04-10T06:11:31;102402.53;;;7.03;100.00
71666;BME280;59503;53.486;10.196;2023-04-10T06:13:57;102404.75;;;7.14;100.00
71666;BME280;59503;53.486;10.196;2023-04-10T06:16:22;102396.66;;;7.28;100.00
71666;BME280;59503;53.486;10.196;2023-04-10T06:18:48;102391.75;;;7.30;100.00
71666;BME280;59503;53.486;10.196;2023-04-10T06:21:16;102400.19;;;7.28;100.00
71666;BME280;59503;53.486;10.196;2023-04-10T06:23:42;102394.56;;;7.25;100.00
71666;BME280;59503;53.486;10.196;2023-04-10T06:26:07;102381.34;;;7.37;100.00
71666;BME280;59503;53.486;10.196;2023-04-10T06:28:33;102383.97;;;7.42;100.00
71666;BME280;59503;53.486;10.196;2023-04-10T06:30:59;102384.75;;;7.29;100.00
71666;BME280;59503;53.486;10.196;2023-04-10T06:33:27;102376.34;;;7.44;100.00
71666;BME280;59503;53.486;10.196;2023-04-10T06:35:52;102376.25;;;7.49;100.00
71666;BME280;59503;53.486;10.196;2023-04-10T06:38:18;102368.13;;;7.49;100.00
71666;BME280;59503;53.486;10.196;2023-04-10T06:40:43;102376.53;;;7.61;100.00
71666;BME280;59503;53.486;10.196;2023-04-10T06:43:09;102366.59;;;7.70;100.00
71666;BME280;59503;53.486;10.196;2023-04-10T06:45:34;102364.91;;;7.74;100.00
71666;BME280;59503;53.486;10.196;2023-04-10T06:48:00;102363.81;;;7.62;100.00
71666;BME280;59503;53.486;10.196;2023-04-10T06:50:25;102364.63;;;7.62;100.00
71666;BME280;59503;53.486;10.196;2023-04-10T06:52:51;102367.13;;;7.72;100.00
71666;BME280;59503;53.486;10.196;2023-04-10T06:55:20;102369.41;;;7.79;100.00
71666;BME280;59503;53.486;10.196;2023-04-10T06:57:45;102361.47;;;7.82;100.00
71666;BME280;59503;53.486;10.196;2023-04-10T07:00:11;102359.59;;;7.83;100.00
71666;BME280;59503;53.486;10.196;2023-04-10T07:02:37;102357.06;;;7.86;100.00
71666;BME280;59503;53.486;10.196;2023-04-10T07:05:02;102356.03;;;7.96;100.00
71666;BME280;59503;53.486;10.196;2023-04-10T07:07:28;102360.34;;;7.97;100.00
71666;BME280;59503;53.486;10.196;2023-04-10T07:09:53;102362.41;;;8.13;100.00
71666;BME280;59503;53.486;10.196;2023-04-10T07:12:19;102358.78;;;8.31;100.00
71666;BME280;59503;53.486;10.196;2023-04-10T07:14:44;102356.69;;;8.50;100.00
71666;BME280;59503;53.486;10.196;2023-04-10T07:17:10;102353.00;;;8.68;100.00
71666;BME280;59503;53.486;10.196;2023-04-10T07:19:35;102359.47;;;8.90;100.00
71666;BME280;59503;53.486;10.196;2023-04-10T07:22:02;102359.59;;;9.07;100.00
71666;BME280;59503;53.486;10.196;2023-04-10T07:24:28;102343.22;;;9.20;100.00
71666;BME280;59503;53.486;10.196;2023-04-10T07:26:54;102350.19;;;9.52;100.00
71666;BME280;59503;53.486;10.196;2023-04-10T07:29:21;102341.13;;;9.82;100.00
71666;BME280;59503;53.486;10.196;2023-04-10T07:31:47;102342.13;;;10.12;100.00
71666;BME280;59503;53.486;10.196;2023-04-10T07:34:12;102341.81;;;10.13;99.92
71666;BME280;59503;53.486;10.196;2023-04-10T07:36:37;102334.31;;;10.19;98.05
71666;BME280;59503;53.486;10.196;2023-04-10T07:39:03;102335.41;;;10.52;97.83
71666;BME280;59503;53.486;10.196;2023-04-10T07:41:28;102339.09;;;10.56;96.31
71666;BME280;59503;53.486;10.196;2023-04-10T07:43:54;102338.88;;;10.78;94.00
71666;BME280;59503;53.486;10.196;2023-04-10T07:46:20;102341.97;;;11.05;92.35
71666;BME280;59503;53.486;10.196;2023-04-10T07:48:45;102330.53;;;10.91;90.16
71666;BME280;59503;53.486;10.196;2023-04-10T07:51:14;102332.31;;;11.25;91.16
71666;BME280;59503;53.486;10.196;2023-04-10T07:53:40;102329.56;;;11.34;88.03
71666;BME280;59503;53.486;10.196;2023-04-10T07:56:06;102324.72;;;11.68;87.06
71666;BME280;59503;53.486;10.196;2023-04-10T07:58:32;102326.69;;;11.88;83.98
71666;BME280;59503;53.486;10.196;2023-04-10T08:00:57;102328.41;;;12.13;83.88
71666;BME280;59503;53.486;10.196;2023-04-10T08:03:23;102336.16;;;12.77;81.27
71666;BME280;59503;53.486;10.196;2023-04-10T08:05:49;102329.38;;;12.95;75.94
71666;BME280;59503;53.486;10.196;2023-04-10T08:08:15;102327.22;;;13.00;75.66
71666;BME280;59503;53.486;10.196;2023-04-10T08:10:40;102315.31;;;13.17;72.89
71666;BME280;59503;53.486;10.196;2023-04-10T08:13:06;102322.72;;;13.16;73.51
71666;BME280;59503;53.486;10.196;2023-04-10T08:15:32;102316.78;;;13.26;73.81
71666;BME280;59503;53.486;10.196;2023-04-10T08:17:57;102316.34;;;13.60;71.66
71666;BME280;59503;53.486;10.196;2023-04-10T08:20:23;102313.38;;;13.65;72.01
71666;BME280;59503;53.486;10.196;2023-04-10T08:22:48;102305.34;;;14.24;70.88
71666;BME280;59503;53.486;10.196;2023-04-10T08:25:13;102308.31;;;14.47;66.61
71666;BME280;59503;53.486;10.196;2023-04-10T08:27:39;102301.78;;;14.36;66.32
71666;BME280;59503;53.486;10.196;2023-04-10T08:30:05;102295.84;;;14.34;65.28
71666;BME280;59503;53.486;10.196;2023-04-10T08:32:31;102292.22;;;14.30;65.23
71666;BME280;59503;53.486;10.196;2023-04-10T08:34:57;102286.88;;;14.49;63.15
71666;BME280;59503;53.486;10.196;2023-04-10T08:37:22;102288.09;;;14.94;61.61
71666;BME280;59503;53.486;10.196;2023-04-10T08:39:48;102276.16;;;15.68;58.58
71666;BME280;59503;53.486;10.196;2023-04-10T08:42:14;102288.38;;;16.09;56.59
71666;BME280;59503;53.486;10.196;2023-04-10T08:44:39;102285.81;;;16.19;54.42
71666;BME280;59503;53.486;10.196;2023-04-10T08:47:07;102275.00;;;15.88;55.80
71666;BME280;59503;53.486;10.196;2023-04-10T08:49:52;102274.00;;;16.15;55.72
71666;BME280;59503;53.486;10.196;2023-04-10T08:52:23;102272.91;;;16.20;53.94
71666;BME280;59503;53.486;10.196;2023-04-10T08:54:56;102275.59;;;16.58;52.62
71666;BME280;59503;53.486;10.196;2023-04-10T08:57:23;102265.47;;;16.40;52.47
71666;BME280;59503;53.486;10.196;2023-04-10T08:59:51;102253.84;;;16.69;53.44
71666;BME280;59503;53.486;10.196;2023-04-10T09:02:17;102241.97;;;17.10;52.66
71666;BME280;59503;53.486;10.196;2023-04-10T09:04:52;102241.28;;;17.16;51.22
71666;BME280;59503;53.486;10.196;2023-04-10T09:07:19;102245.31;;;17.78;49.00
71666;BME280;59503;53.486;10.196;2023-04-10T09:09:45;102234.28;;;17.22;48.56
71666;BME280;59503;53.486;10.196;2023-04-10T09:12:12;102233.91;;;17.24;49.18
71666;BME280;59503;53.486;10.196;2023-04-10T09:14:39;102226.38;;;16.91;49.51
71666;BME280;59503;53.486;10.196;2023-04-10T09:17:15;102229.59;;;17.23;49.46
71666;BME280;59503;53.486;10.196;2023-04-10T09:19:41;102231.56;;;17.49;49.57
71666;BME280;59503;53.486;10.196;2023-04-10T09:22:07;102217.63;;;17.64;47.95
71666;BME280;59503;53.486;10.196;2023-04-10T09:24:40;102212.69;;;17.77;48.28
71666;BME280;59503;53.486;10.196;2023-04-10T09:27:06;102209.50;;;17.45;47.58
71666;BME280;59503;53.486;10.196;2023-04-10T09:32:05;102204.31;;;17.99;46.64
71666;BME280;59503;53.486;10.196;2023-04-10T09:34:31;102197.34;;;18.49;44.13
71666;BME280;59503;53.486;10.196;2023-04-10T09:37:00;102192.28;;;18.14;45.63
71666;BME280;59503;53.486;10.196;2023-04-10T09:39:38;102186.75;;;17.78;45.35
71666;BME280;59503;53.486;10.196;2023-04-10T09:42:08;102179.91;;;18.34;45.27
71666;BME280;59503;53.486;10.196;2023-04-10T09:44:36;102171.91;;;18.22;45.54
71666;BME280;59503;53.486;10.196;2023-04-10T09:47:19;102168.44;;;18.29;45.55
71666;BME280;59503;53.486;10.196;2023-04-10T09:49:49;102165.72;;;18.32;45.95
71666;BME280;59503;53.486;10.196;2023-04-10T09:52:32;102157.03;;;17.90;44.22
71666;BME280;59503;53.486;10.196;2023-04-10T09:54:59;102151.59;;;17.97;44.47
71666;BME280;59503;53.486;10.196;2023-04-10T09:57:27;102140.66;;;18.41;43.57
71666;BME280;59503;53.486;10.196;2023-04-10T09:59:55;102139.91;;;18.07;43.36
71666;BME280;59503;53.486;10.196;2023-04-10T10:02:23;102122.44;;;18.29;44.13
71666;BME280;59503;53.486;10.196;2023-04-10T10:04:50;102123.94;;;18.23;42.23
71666;BME280;59503;53.486;10.196;2023-04-10T10:07:18;102110.88;;;18.61;42.53
71666;BME280;59503;53.486;10.196;2023-04-10T10:09:46;102104.34;;;18.32;42.12
71666;BME280;59503;53.486;10.196;2023-04-10T10:12:14;102094.34;;;18.61;42.23
71666;BME280;59503;53.486;10.196;2023-04-10T10:14:49;102100.59;;;18.50;41.64
71666;BME280;59503;53.486;10.196;2023-04-10T10:17:18;102092.66;;;19.03;41.03
71666;BME280;59503;53.486;10.196;2023-04-10T10:22:25;102075.81;;;18.54;40.57
71666;BME280;59503;53.486;10.196;2023-04-10T10:24:53;102084.38;;;19.03;39.98
71666;BME280;59503;53.486;10.196;2023-04-10T10:27:22;102070.16;;;18.36;40.89
71666;BME280;59503;53.486;10.196;2023-04-10T10:29:49;102065.91;;;18.42;40.82
71666;BME280;59503;53.486;10.196;2023-04-10T10:32:17;102063.78;;;18.25;40.30
71666;BME280;59503;53.486;10.196;2023-04-10T10:34:43;102053.34;;;18.48;40.81
71666;BME280;59503;53.486;10.196;2023-04-10T10:37:10;102066.41;;;18.58;38.99
71666;BME280;59503;53.486;10.196;2023-04-10T10:39:56;102046.34;;;18.58;39.60
71666;BME280;59503;53.486;10.196;2023-04-10T10:42:35;102047.72;;;18.38;40.53
71666;BME280;59503;53.486;10.196;2023-04-10T10:45:14;102040.47;;;18.63;39.76
71666;BME280;59503;53.486;10.196;2023-04-10T10:47:43;102034.47;;;18.47;39.68
71666;BME280;59503;53.486;10.196;2023-04-10T10:50:10;102020.00;;;18.61;40.22
71666;BME280;59503;53.486;10.196;2023-04-10T10:55:29;102019.53;;;18.51;39.26
71666;BME280;59503;53.486;10.196;2023-04-10T10:58:08;102004.06;;;19.05;38.46
71666;BME280;59503;53.486;10.196;2023-04-10T11:06:05;101997.53;;;18.01;39.44
71666;BME280;59503;53.486;10.196;2023-04-10T11:11:03;101988.72;;;18.32;39.67
71666;BME280;59503;53.486;10.196;2023-04-10T11:13:33;101982.72;;;18.16;40.55
71666;BME280;59503;53.486;10.196;2023-04-10T11:16:01;101974.19;;;17.81;38.86
71666;BME280;59503;53.486;10.196;2023-04-10T11:29:04;101943.81;;;19.14;37.52
71666;BME280;59503;53.486;10.196;2023-04-10T11:31:31;101944.56;;;18.93;36.98
71666;BME280;59503;53.486;10.196;2023-04-10T11:34:04;101942.97;;;18.89;37.25
71666;BME280;59503;53.486;10.196;2023-04-10T11:36:31;101931.69;;;19.36;36.14
71666;BME280;59503;53.486;10.196;2023-04-10T11:39:02;101926.97;;;19.78;36.09
71666;BME280;59503;53.486;10.196;2023-04-10T11:41:41;101919.88;;;19.32;35.76
71666;BME280;59503;53.486;10.196;2023-04-10T11:44:08;101918.16;;;18.89;36.25
71666;BME280;59503;53.486;10.196;2023-04-10T11:46:44;101911.16;;;19.23;36.82
71666;BME280;59503;53.486;10.196;2023-04-10T11:49:19;101899.00;;;19.55;35.21
71666;BME280;59503;53.486;10.196;2023-04-10T11:51:50;101903.69;;;19.72;34.52
71666;BME280;59503;53.486;10.196;2023-04-10T11:54:17;101891.91;;;19.37;34.58
71666;BME280;59503;53.486;10.196;2023-04-10T11:57:03;101891.44;;;19.03;34.93
71666;BME280;59503;53.486;10.196;2023-04-10T11:59:31;101882.75;;;18.94;35.90
71666;BME280;59503;53.486;10.196;2023-04-10T12:02:11;101873.31;;;18.95;34.70
71666;BME280;59503;53.486;10.196;2023-04-10T12:04:42;101881.66;;;19.34;35.64
71666;BME280;59503;53.486;10.196;2023-04-10T12:07:08;101869.03;;;19.57;33.94
71666;BME280;59503;53.486;10.196;2023-04-10T12:09:34;101870.13;;;20.16;32.96
71666;BME280;59503;53.486;10.196;2023-04-10T12:12:04;101865.38;;;20.10;33.09
71666;BME280;59503;53.486;10.196;2023-04-10T12:14:32;101870.16;;;20.06;32.90
71666;BME280;59503;53.486;10.196;2023-04-10T12:16:59;101867.06;;;19.79;33.27
71666;BME280;59503;53.486;10.196;2023-04-10T12:19:25;101856.44;;;19.60;33.70
71666;BME280;59503;53.486;10.196;2023-04-10T12:21:51;101848.16;;;19.21;34.26
71666;BME280;59503;53.486;10.196;2023-04-10T12:27:19;101831.59;;;19.11;32.72
71666;BME280;59503;53.486;10.196;2023-04-10T12:29:46;101833.16;;;19.19;34.16
71666;BME280;59503;53.486;10.196;2023-04-10T12:32:12;101839.53;;;19.40;32.90
71666;BME280;59503;53.486;10.196;2023-04-10T12:34:37;101830.06;;;19.45;32.88
71666;BME280;59503;53.486;10.196;2023-04-10T12:37:03;101830.81;;;19.59;33.16
71666;BME280;59503;53.486;10.196;2023-04-10T12:39:28;101824.47;;;19.69;32.26
71666;BME280;59503;53.486;10.196;2023-04-10T12:42:17;101820.56;;;19.18;32.15
71666;BME280;59503;53.486;10.196;2023-04-10T12:44:59;101829.63;;;19.11;33.61
71666;BME280;59503;53.486;10.196;2023-04-10T12:47:27;101816.59;;;18.77;33.24
71666;BME280;59503;53.486;10.196;2023-04-10T12:50:06;101817.38;;;18.60;34.00
71666;BME280;59503;53.486;10.196;2023-04-10T12:52:32;101799.22;;;18.41;34.72
71666;BME280;59503;53.486;10.196;2023-04-10T12:55:18;101799.25;;;18.58;34.36
71666;BME280;59503;53.486;10.196;2023-04-10T12:57:56;101799.22;;;18.44;34.37
71666;BME280;59503;53.486;10.196;2023-04-10T13:00:26;101802.06;;;18.87;34.37
71666;BME280;59503;53.486;10.196;2023-04-10T13:02:52;101790.66;;;18.92;34.08
71666;BME280;59503;53.486;10.196;2023-04-10T13:05:17;101793.78;;;19.08;34.04
71666;BME280;59503;53.486;10.196;2023-04-10T13:07:43;101778.84;;;18.88;34.87
71666;BME280;59503;53.486;10.196;2023-04-10T13:10:09;101772.16;;;19.10;34.43
71666;BME280;59503;53.486;10.196;2023-04-10T13:12:34;101767.03;;;19.33;34.32
71666;BME280;59503;53.486;10.196;2023-04-10T13:15:02;101758.75;;;19.08;34.22
71666;BME280;59503;53.486;10.196;2023-04-10T13:17:27;101753.63;;;19.21;34.73
71666;BME280;59503;53.486;10.196;2023-04-10T13:19:53;101746.53;;;19.02;33.70
71666;BME280;59503;53.486;10.196;2023-04-10T13:22:19;101743.41;;;18.86;33.77
71666;BME280;59503;53.486;10.196;2023-04-10T13:24:44;101740.66;;;18.76;34.92